Time;durP1;ratioP1;P1;durP2;ratioP2;P2;SDS_P1;SDS_P2;PMS_P1;PMS_P2;Temp;Humidity;BMP_temperature;BMP_pressure;BME280_temperature;BME280_humidity;BME280_pressure;Samples;Min_cycle;Max_cycle;Signal;HPM_P1;HPM_P2
2022/01/08 00:00:04;;;;;;;;;;;;;;;20.47;46.03;100884.63;2074886;28;20364;-74
2022/01/08 00:01:09;;;;;;;;;;;;;;;20.46;46.12;100889.22;2074020;28;20269;-74
2022/01/08 00:02:09;;;;;;;;;;;;;;;20.47;45.91;100890.06;2073093;28;20453;-74
2022/01/08 00:03:11;;;;;;;;;;;;;;;20.45;45.88;100890.22;2072335;28;20608;-74
2022/01/08 00:04:11;;;;;;;;;;;;;;;20.44;46.31;100893.97;2075704;28;19929;-74
2022/01/08 00:05:12;;;;;;;;;;;;;;;20.42;46.13;100899.56;2074014;28;20358;-74
2022/01/08 00:06:14;;;;;;;;;;;;;;;20.43;45.94;100900.41;2074465;28;19940;-74
2022/01/08 00:07:14;;;;;;;;;;;;;;;20.41;46.08;100902.44;2073966;28;20885;-74
2022/01/08 00:08:16;;;;;;;;;;;;;;;20.41;46.16;100899.72;2074326;28;19947;-74
2022/01/08 00:09:16;;;;;;;;;;;;;;;20.39;46.07;100899.91;2075490;28;19944;-74
2022/01/08 00:10:18;;;;;;;;;;;;;;;20.39;46.21;100905.31;2075157;28;19924;-74
2022/01/08 00:11:24;;;;;;;;;;;;;;;20.39;46.09;100904.50;2075017;28;19928;-74
2022/01/08 00:12:25;;;;;;;;;;;;;;;20.38;45.90;100900.94;2074988;28;19921;-74
2022/01/08 00:13:26;;;;;;;;;;;;;;;20.37;46.33;100901.94;2074769;28;19931;-75
2022/01/08 00:14:28;;;;;;;;;;;;;;;20.36;45.93;100902.97;2074460;28;19925;-74
2022/01/08 00:15:29;;;;;;;;;;;;;;;20.36;46.09;100910.25;2073806;28;19929;-74
2022/01/08 00:16:33;;;;;;;;;;;;;;;20.35;46.12;100909.41;2074507;28;19921;-75
2022/01/08 00:17:33;;;;;;;;;;;;;;;20.35;46.02;100914.00;2075534;28;19921;-74
2022/01/08 00:18:34;;;;;;;;;;;;;;;20.33;45.68;100906.03;2071925;28;19999;-74
2022/01/08 00:19:35;;;;;;;;;;;;;;;20.33;45.99;100910.63;2073971;28;19929;-74
2022/01/08 00:20:36;;;;;;;;;;;;;;;20.32;46.31;100908.91;2074487;28;19929;-74
2022/01/08 00:21:37;;;;;;;;;;;;;;;20.30;46.22;100906.38;2075355;28;20470;-74
2022/01/08 00:22:38;;;;;;;;;;;;;;;20.30;46.19;100902.81;2074894;28;20359;-74
2022/01/08 00:23:40;;;;;;;;;;;;;;;20.30;46.10;100902.81;2073859;28;19936;-74
2022/01/08 00:24:40;;;;;;;;;;;;;;;20.29;46.17;100899.25;2075786;28;19983;-74
2022/01/08 00:25:42;;;;;;;;;;;;;;;20.29;46.14;100907.41;2074383;28;19955;-74
2022/01/08 00:26:43;;;;;;;;;;;;;;;20.30;46.14;100906.38;2075102;28;19946;-74
2022/01/08 00:27:45;;;;;;;;;;;;;;;20.29;46.25;100901.97;2074539;28;19925;-74
2022/01/08 00:28:45;;;;;;;;;;;;;;;20.30;45.92;100913.66;2075230;28;19925;-74
2022/01/08 00:29:46;;;;;;;;;;;;;;;20.29;46.15;100907.41;2076009;28;19921;-74
2022/01/08 00:30:48;;;;;;;;;;;;;;;20.29;46.36;100910.09;2073890;28;20319;-74
2022/01/08 00:31:50;;;;;;;;;;;;;;;20.29;45.96;100911.97;2073954;28;20349;-74
2022/01/08 00:32:50;;;;;;;;;;;;;;;20.29;46.19;100906.56;2075160;28;19995;-74
2022/01/08 00:33:52;;;;;;;;;;;;;;;20.29;45.82;100909.28;2073080;28;19983;-74
2022/01/08 00:34:52;;;;;;;;;;;;;;;20.29;46.30;100906.56;2072054;28;19924;-74
2022/01/08 00:35:53;;;;;;;;;;;;;;;20.29;46.05;100901.97;2074041;28;20016;-74
2022/01/08 00:36:54;;;;;;;;;;;;;;;20.30;45.85;100902.81;2076421;28;19929;-74
2022/01/08 00:37:55;;;;;;;;;;;;;;;20.30;46.10;100900.09;2076016;28;20429;-74
2022/01/08 00:38:55;;;;;;;;;;;;;;;20.29;45.88;100896.53;2074001;28;19933;-74
2022/01/08 00:39:57;;;;;;;;;;;;;;;20.29;46.31;100904.69;2074252;28;19984;-74
2022/01/08 00:40:57;;;;;;;;;;;;;;;20.30;46.09;100900.94;2074053;28;20716;-74
2022/01/08 00:42:00;;;;;;;;;;;;;;;20.29;46.20;100899.25;2074414;28;20032;-74
2022/01/08 00:43:00;;;;;;;;;;;;;;;20.29;46.15;100901.13;2074471;28;19936;-74
2022/01/08 00:44:02;;;;;;;;;;;;;;;20.29;45.83;100901.13;2074125;28;19929;-74
2022/01/08 00:45:02;;;;;;;;;;;;;;;20.29;46.37;100899.25;2074402;28;20051;-74
2022/01/08 00:46:04;;;;;;;;;;;;;;;20.29;46.04;100898.41;2074684;28;19988;-74
2022/01/08 00:47:04;;;;;;;;;;;;;;;20.28;46.09;100902.97;2073733;28;19921;-74
2022/01/08 00:48:05;;;;;;;;;;;;;;;20.29;45.93;100901.97;2075156;28;20395;-74
2022/01/08 00:49:06;;;;;;;;;;;;;;;20.30;46.06;100898.22;2073163;28;19936;-74
2022/01/08 00:50:08;;;;;;;;;;;;;;;20.31;45.92;100901.81;2073837;28;19974;-74
2022/01/08 00:51:08;;;;;;;;;;;;;;;20.30;46.14;100898.22;2074799;28;20499;-74
2022/01/08 00:52:09;;;;;;;;;;;;;;;20.30;46.26;100892.78;2074359;28;20726;-74
2022/01/08 00:53:10;;;;;;;;;;;;;;;20.33;46.06;100894.34;2074847;28;19947;-74
2022/01/08 00:54:11;;;;;;;;;;;;;;;20.33;46.09;100895.19;2074897;28;19965;-74
2022/01/08 00:55:12;;;;;;;;;;;;;;;20.33;46.01;100899.75;2074681;28;19929;-74
2022/01/08 00:56:14;;;;;;;;;;;;;;;20.33;46.11;100900.59;2074230;28;19929;-74
2022/01/08 00:57:16;;;;;;;;;;;;;;;20.33;46.05;100903.31;2075472;28;19928;-74
2022/01/08 00:58:17;;;;;;;;;;;;;;;20.33;46.20;100905.19;2075310;28;19967;-74
2022/01/08 00:59:17;;;;;;;;;;;;;;;20.32;46.21;100904.31;2074319;28;19948;-74
2022/01/08 01:00:19;;;;;;;;;;;;;;;20.33;45.78;100910.63;2074175;28;19984;-74
2022/01/08 01:01:19;;;;;;;;;;;;;;;20.32;46.07;100911.63;2074522;28;20281;-74
2022/01/08 01:02:21;;;;;;;;;;;;;;;20.33;46.13;100911.44;2073913;28;19925;-74
2022/01/08 01:03:22;;;;;;;;;;;;;;;20.34;46.24;100909.56;2074606;28;19943;-73
2022/01/08 01:04:22;;;;;;;;;;;;;;;20.32;46.13;100907.03;2074555;28;19929;-74
2022/01/08 01:05:24;;;;;;;;;;;;;;;20.34;46.27;100915.00;2072508;28;20018;-74
2022/01/08 01:06:24;;;;;;;;;;;;;;;20.33;46.36;100914.16;2074303;28;19932;-74
2022/01/08 01:07:25;;;;;;;;;;;;;;;20.33;46.17;100911.44;2075047;28;20377;-74
2022/01/08 01:08:26;;;;;;;;;;;;;;;20.34;46.09;100915.00;2074196;28;20385;-74
2022/01/08 01:09:27;;;;;;;;;;;;;;;20.33;45.93;100914.16;2074784;28;20268;-74
2022/01/08 01:10:27;;;;;;;;;;;;;;;20.33;45.88;100907.91;2073978;28;20277;-74
2022/01/08 01:11:29;;;;;;;;;;;;;;;20.33;46.22;100916.88;2073775;28;20020;-74
2022/01/08 01:12:31;;;;;;;;;;;;;;;20.33;45.83;100910.63;2075601;28;19932;-74
2022/01/08 01:13:32;;;;;;;;;;;;;;;20.32;46.01;100917.88;2075408;28;19920;-74
2022/01/08 01:14:32;;;;;;;;;;;;;;;20.32;46.15;100911.63;2074397;28;19925;-74
2022/01/08 01:15:34;;;;;;;;;;;;;;;20.32;46.05;100912.47;2074631;28;20078;-74
2022/01/08 01:16:34;;;;;;;;;;;;;;;20.32;46.11;100919.75;2074221;28;19932;-74
2022/01/08 01:17:36;;;;;;;;;;;;;;;20.30;46.17;100917.22;2074138;28;19925;-74
2022/01/08 01:18:37;;;;;;;;;;;;;;;20.30;45.98;100902.81;2073159;28;19929;-75
2022/01/08 01:19:38;;;;;;;;;;;;;;;20.31;46.16;100904.53;2074272;28;19931;-74
2022/01/08 01:20:39;;;;;;;;;;;;;;;20.29;46.14;100907.41;2075268;28;20289;-74
2022/01/08 01:21:40;;;;;;;;;;;;;;;20.31;46.01;100912.66;2071117;28;19960;-74
2022/01/08 01:22:49;;;;;;;;;;;;;;;20.30;46.12;100914.50;2074550;28;19940;-74
2022/01/08 01:23:50;;;;;;;;;;;;;;;20.30;45.93;100908.25;2075362;28;19947;-74
2022/01/08 01:24:59;;;;;;;;;;;;;;;20.30;45.89;100910.94;2075276;28;19928;-74
2022/01/08 01:26:01;;;;;;;;;;;;;;;20.30;46.03;100910.94;2075629;28;20380;-74
2022/01/08 01:27:41;;;;;;;;;;;;;;;20.29;45.87;100923.69;2072868;28;19925;-74
2022/01/08 01:28:47;;;;;;;;;;;;;;;20.29;45.83;100923.69;2074110;28;19961;-74
2022/01/08 01:29:53;;;;;;;;;;;;;;;20.29;46.13;100914.69;2074581;28;20673;-74
2022/01/08 01:41:08;;;;;;;;;;;;;;;20.29;45.67;100925.56;2073515;28;19990;-74
2022/01/08 01:41:48;;;;;;;;;;;;;;;20.23;46.07;100922.50;2074247;28;19925;-74
2022/01/08 01:43:16;;;;;;;;;;;;;;;20.23;46.00;100924.38;2075235;28;20578;-74
2022/01/08 01:47:01;;;;;;;;;;;;;;;20.20;45.84;100932.84;2076249;28;19925;-74
2022/01/08 01:48:03;;;;;;;;;;;;;;;20.20;46.03;100933.69;2075391;28;19929;-74
2022/01/08 01:49:04;;;;;;;;;;;;;;;20.18;45.99;100938.44;2075612;28;20284;-74
2022/01/08 01:50:07;;;;;;;;;;;;;;;20.18;45.74;100937.59;2075425;28;19925;-74
2022/01/08 01:51:08;;;;;;;;;;;;;;;20.17;45.47;100936.75;2075946;28;19928;-74
2022/01/08 01:52:10;;;;;;;;;;;;;;;20.17;45.86;100936.75;2075768;28;20382;-74
2022/01/08 01:53:11;;;;;;;;;;;;;;;20.17;45.70;100939.47;2073570;28;20130;-74
2022/01/08 01:54:12;;;;;;;;;;;;;;;20.17;45.79;100941.31;2074684;28;20485;-74
2022/01/08 01:55:13;;;;;;;;;;;;;;;20.16;45.94;100942.34;2075785;28;20678;-74
2022/01/08 01:56:15;;;;;;;;;;;;;;;20.16;46.07;100942.34;2075643;28;20586;-74
2022/01/08 01:57:17;;;;;;;;;;;;;;;20.16;45.97;100936.91;2075015;28;20301;-75
2022/01/08 01:58:19;;;;;;;;;;;;;;;20.15;46.01;100946.91;2076397;28;19979;-74
2022/01/08 01:59:21;;;;;;;;;;;;;;;20.15;45.99;100943.34;2076113;28;19925;-74
2022/01/08 02:00:22;;;;;;;;;;;;;;;20.15;45.94;100946.91;2075066;28;19929;-74
2022/01/08 02:01:23;;;;;;;;;;;;;;;20.15;45.90;100948.78;2075863;28;19929;-74
2022/01/08 02:02:24;;;;;;;;;;;;;;;20.15;46.18;100951.47;2075648;28;19968;-74
2022/01/08 02:03:24;;;;;;;;;;;;;;;20.16;45.46;100947.78;2074947;28;19925;-74
2022/01/08 02:04:26;;;;;;;;;;;;;;;20.16;45.89;100945.06;2075625;28;19966;-74
2022/01/08 02:05:27;;;;;;;;;;;;;;;20.16;45.92;100939.63;2074954;28;19921;-74
2022/01/08 02:06:28;;;;;;;;;;;;;;;20.16;46.07;100945.91;2075883;28;19929;-74
2022/01/08 02:07:29;;;;;;;;;;;;;;;20.16;46.04;100943.19;2074676;28;20415;-74
2022/01/08 02:08:31;;;;;;;;;;;;;;;20.17;45.97;100941.31;2075924;28;20031;-75
2022/01/08 02:09:33;;;;;;;;;;;;;;;20.17;45.89;100946.72;2073098;28;19959;-73
2022/01/08 02:10:35;;;;;;;;;;;;;;;20.17;46.13;100944.88;2076594;28;19935;-74
2022/01/08 02:11:51;;;;;;;;;;;;;;;20.18;45.98;100937.59;2075821;28;19929;-74
2022/01/08 02:12:52;;;;;;;;;;;;;;;20.17;45.93;100942.19;2073754;28;19921;-74
2022/01/08 02:14:00;;;;;;;;;;;;;;;20.18;45.97;100943.84;2076219;28;19929;-74
2022/01/08 02:15:03;;;;;;;;;;;;;;;20.19;45.76;100944.69;2075603;28;19932;-74
2022/01/08 02:16:06;;;;;;;;;;;;;;;20.20;45.92;100935.56;2076163;28;19929;-74
2022/01/08 02:17:08;;;;;;;;;;;;;;;20.20;46.32;100947.25;2075347;28;19939;-74
2022/01/08 02:18:08;;;;;;;;;;;;;;;20.21;45.99;100942.66;2075689;28;20427;-74
2022/01/08 02:19:10;;;;;;;;;;;;;;;20.22;45.85;100944.38;2076080;28;19966;-75
2022/01/08 02:20:13;;;;;;;;;;;;;;;20.22;46.11;100939.78;2075507;28;19921;-74
2022/01/08 02:21:15;;;;;;;1.23;1.13;;;;;;;20.22;45.93;100941.66;2075410;28;20430;-74
2022/01/08 02:22:17;;;;;;;;;;;;;;;20.23;45.99;100943.34;2075279;28;20649;-74
2022/01/08 02:23:17;;;;;;;;;;;;;;;20.23;46.00;100944.19;2075928;28;20986;-74
2022/01/08 02:24:18;;;;;;;;;;;;;;;20.22;45.91;100942.50;2072310;28;19952;-74
2022/01/08 02:25:21;;;;;;;;;;;;;;;20.22;45.82;100945.19;2074963;28;19936;-74
2022/01/08 02:26:22;;;;;;;;;;;;;;;19.75;45.84;100859.13;2076559;28;20039;-74
2022/01/08 02:27:23;;;;;;;;;;;;;;;20.23;45.82;100943.34;2075909;28;19929;-74
2022/01/08 02:28:23;;;;;;;;;;;;;;;20.22;46.02;100937.06;2075866;28;19929;-74
2022/01/08 02:29:25;;;;;;;;;;;;;;;20.22;45.72;100945.19;2075289;28;19960;-74
2022/01/08 02:30:26;;;;;;;;;;;;;;;20.22;45.80;100939.78;2076256;28;19925;-74
2022/01/08 02:31:27;;;;;;;;;;;;;;;20.22;45.68;100938.94;2075365;28;20063;-74
2022/01/08 02:32:30;;;;;;;;;;;;;;;20.23;45.99;100932.50;2075071;28;19921;-74
2022/01/08 02:33:32;;;;;;;;;;;;;;;20.22;45.92;100934.34;2075305;28;19929;-74
2022/01/08 02:34:33;;;;;;;;;;;;;;;20.22;45.76;100939.78;2075738;28;19925;-74
2022/01/08 02:35:36;;;;;;;;;;;;;;;20.22;45.96;100933.50;2076312;28;19929;-74
2022/01/08 02:36:38;;;;;;;;;;;;;;;20.22;45.71;100936.22;2073905;28;19930;-74
2022/01/08 02:37:39;;;;;;;;;;;;;;;20.22;45.83;100934.34;2075262;28;20999;-74
2022/01/08 02:38:40;;;;;;;;;;;;;;;20.22;45.48;100934.34;2075983;28;20392;-74
2022/01/08 02:39:43;;;;;;;;;;;;;;;20.20;45.65;100939.09;2073288;28;20359;-74
2022/01/08 02:40:51;;;;;;;;;;;;;;;20.21;45.40;100938.09;2075986;28;20511;-73
2022/01/08 02:41:56;;;;;;;;;;;;;;;20.20;45.63;100935.56;2075451;28;19962;-73
2022/01/08 02:43:01;;;;;;;;;;;;;;;20.19;45.76;100936.56;2074257;28;19998;-74
2022/01/08 02:44:03;;;;;;;;;;;;;;;20.18;45.46;100940.31;2075786;28;19921;-74
2022/01/08 02:45:04;;;;;;;;;;;;;;;20.17;45.77;100938.59;2076429;28;19924;-74
2022/01/08 02:46:05;;;;;;;;;;;;;;;20.16;45.67;100945.06;2075684;28;20020;-74
2022/01/08 02:47:07;;;;;;;;;;;;;;;20.15;45.76;100941.47;2075807;28;19932;-74
2022/01/08 02:48:08;;;;;;;;;;;;;;;20.15;45.91;100943.34;2075020;28;19929;-74
2022/01/08 02:49:09;;;;;;;;;;;;;;;20.14;45.63;100945.22;2075554;28;20051;-74
2022/01/08 02:50:10;;;;;;;;;;;;;;;20.14;45.93;100938.97;2074702;28;19925;-74
2022/01/08 02:51:13;;;;;;;;;;;;;;;20.13;45.79;100946.22;2076422;28;19925;-74
2022/01/08 02:52:14;;;;;;;;;;;;;;;20.14;45.62;100936.25;2074846;28;19929;-74
2022/01/08 02:53:14;;;;;;;;;;;;;;;20.13;45.70;100938.09;2074945;28;19936;-74
2022/01/08 02:54:16;;;;;;;;;;;;;;;20.13;45.77;100938.09;2076065;28;19957;-74
2022/01/08 02:55:18;;;;;;;;;;;;;;;20.13;45.76;100931.81;2073287;28;19932;-74
2022/01/08 02:56:19;;;;;;;;;;;;;;;20.13;45.88;100942.66;2075490;28;19972;-74
2022/01/08 02:57:21;;;;;;;;;;;;;;;20.12;45.83;100932.84;2075526;28;19929;-74
2022/01/08 02:58:25;;;;;;;;;;;;;;;20.11;45.84;100940.13;2075412;28;20285;-74
2022/01/08 02:59:27;;;;;;;;;;;;;;;20.11;45.79;100942.84;2076370;28;19953;-74
2022/01/08 03:00:27;;;;;;;;;;;;;;;20.11;45.87;100945.53;2074550;28;19929;-74
2022/01/08 03:01:29;;;;;;;;;;;;;;;20.12;45.90;100952.69;2076179;28;20376;-74
2022/01/08 03:02:29;;;;;;;;;;;;;;;20.13;45.54;100953.53;2074992;28;20366;-74
2022/01/08 03:03:31;;;;;;;;;;;;;;;20.12;45.63;100941.00;2074070;28;20270;-74
2022/01/08 03:04:31;;;;;;;;;;;;;;;20.11;45.57;100945.53;2075501;28;19925;-74
2022/01/08 03:05:32;;;;;;;;;;;;;;;20.11;45.85;100934.69;2075092;28;20457;-74
2022/01/08 03:06:34;;;;;;;;;;;;;;;20.12;45.72;100932.84;2074802;28;19964;-74
2022/01/08 03:07:36;;;;;;;;;;;;;;;20.11;45.65;100942.00;2074486;28;19972;-75
2022/01/08 03:08:36;;;;;;;;;;;;;;;20.11;45.73;100939.28;2075649;28;19924;-74
2022/01/08 03:09:41;;;;;;;;;;;;;;;20.11;45.83;100931.16;2075556;28;19968;-74
2022/01/08 03:10:42;;;;;;;;;;;;;;;20.10;45.61;100933.03;2072416;28;20366;-74
2022/01/08 03:11:43;;;;;;;;;;;;;;;20.09;45.64;100931.31;2074422;28;19932;-73
2022/01/08 03:12:45;;;;;;;;;;;;;;;20.10;45.52;100930.31;2075669;28;19929;-74
2022/01/08 03:13:45;;;;;;;;;;;;;;;20.10;45.52;100930.31;2074400;28;19925;-74
2022/01/08 03:14:47;;;;;;;;;;;;;;;20.10;45.79;100929.44;2075515;28;19995;-74
2022/01/08 03:15:47;;;;;;;;;;;;;;;20.10;45.69;100924.00;2074331;28;19932;-74
2022/01/08 03:16:48;;;;;;;;;;;;;;;20.09;45.63;100920.47;2075237;28;19935;-74
2022/01/08 03:17:49;;;;;;;;;;;;;;;20.08;45.72;100923.34;2075344;28;19941;-74
2022/01/08 03:18:51;;;;;;;;;;;;;;;20.09;45.85;100922.34;2074835;28;20008;-74
2022/01/08 03:19:53;;;;;;;;;;;;;;;20.08;45.90;100924.22;2074843;28;19925;-73
2022/01/08 03:21:01;;;;;;;;;;;;;;;20.08;45.74;100929.63;2075049;28;20274;-73
2022/01/08 03:22:04;;;;;;;;;;;;;;;20.08;45.75;100928.75;2074367;28;19964;-74
2022/01/08 03:23:13;;;;;;;;;;;;;;;20.08;45.92;100931.47;2074562;28;19975;-74
2022/01/08 03:24:14;;;;;;;;;;;;;;;20.08;45.53;100936.91;2075589;28;19929;-74
2022/01/08 03:25:16;;;;;;;;;;;;;;;20.09;45.76;100931.31;2073459;28;19987;-74
2022/01/08 03:26:18;;;;;;;;;;;;;;;20.09;45.72;100933.19;2073673;28;19932;-74
2022/01/08 03:27:19;;;;;;;;;;;;;;;20.10;45.74;100933.03;2073679;28;19926;-74
2022/01/08 03:28:19;;;;;;;;;;;;;;;20.11;45.78;100928.44;2076111;28;19929;-74
2022/01/08 03:29:24;;;;;;;;;;;;;;;20.12;45.77;100930.16;2074683;28;20469;-74
2022/01/08 03:30:25;;;;;;;;;;;;;;;20.12;45.70;100930.97;2075500;28;19929;-74
2022/01/08 03:31:26;;;;;;;;;;;;;;;20.12;45.71;100928.28;2074572;28;20020;-74
2022/01/08 03:32:27;;;;;;;;;;;;;;;20.13;45.65;100927.25;2073472;28;19929;-74
2022/01/08 03:33:28;;;;;;;;;;;;;;;20.14;45.83;100925.41;2075416;28;19925;-74
2022/01/08 03:34:29;;;;;;;;;;;;;;;20.14;45.79;100925.41;2074912;28;19929;-74
2022/01/08 03:35:30;;;;;;;;;;;;;;;20.14;45.11;100922.69;2075467;28;19928;-74
2022/01/08 03:36:31;;;;;;;;;;;;;;;20.14;45.71;100928.09;2075174;28;19928;-74
2022/01/08 03:37:33;;;;;;;;;;;;;;;20.14;45.69;100925.41;2075047;28;19960;-74
2022/01/08 03:38:34;;;;;;;;;;;;;;;20.13;45.65;100916.38;2075100;28;19924;-74
2022/01/08 03:39:35;;;;;;;;;;;;;;;20.13;45.71;100927.25;2076139;28;20032;-74
2022/01/08 03:40:36;;;;;;;;;;;;;;;20.12;45.46;100922.84;2074060;28;19921;-74
2022/01/08 03:41:37;;;;;;;;;;;;;;;20.12;45.45;100922.00;2071108;28;19963;-74
2022/01/08 03:42:37;;;;;;;;;;;;;;;20.12;45.68;100919.28;2073487;28;19951;-74
2022/01/08 03:43:39;;;;;;;;;;;;;;;20.12;45.27;100922.00;2073109;28;19925;-74
2022/01/08 03:44:39;;;;;;;;;;;;;;;20.12;45.57;100916.59;2075181;28;19925;-74
2022/01/08 03:45:41;;;;;;;;;;;;;;;20.11;45.30;100923.00;2075877;28;20407;-74
2022/01/08 03:46:41;;;;;;;;;;;;;;;20.12;45.47;100924.72;2075379;28;21299;-74
2022/01/08 03:48:05;;;;;;;;;;;;;;;20.10;45.76;100927.59;2073262;28;20340;-74
2022/01/08 03:49:23;;;;;;;;;;;;;;;20.10;45.31;100924.00;2073100;28;19967;-74
2022/01/08 03:50:24;;;;;;;;;;;;;;;20.10;45.71;100921.31;2075998;28;21258;-74
2022/01/08 03:51:25;;;;;;;;;;;;;;;20.09;45.35;100922.34;2075354;28;19936;-74
2022/01/08 03:52:27;;;;;;;;;;;;;;;20.09;45.51;100914.19;2074822;28;20361;-73
2022/01/08 03:53:28;;;;;;;;;;;;;;;20.08;45.27;100921.50;2074883;28;20273;-73
2022/01/08 03:54:30;;;;;;;;;;;;;;;20.08;45.57;100912.50;2075877;28;19936;-74
2022/01/08 03:55:30;;;;;;;;;;;;;;;20.07;45.30;100914.38;2075148;28;20353;-74
2022/01/08 03:56:31;;;;;;;;;;;;;;;20.07;45.38;100917.06;2072502;28;20110;-74
2022/01/08 03:57:32;;;;;;;;;;;;;;;20.07;45.34;100921.66;2075194;28;20797;-74
2022/01/08 03:58:33;;;;;;;;;;;;;;;20.07;45.39;100913.53;2074142;28;19980;-74
2022/01/08 03:59:34;;;;;;;;;;;;;;;20.07;45.64;100918.94;2074503;28;19925;-74
2022/01/08 04:00:35;;;;;;;;;;;;;;;20.07;45.56;100918.94;2074183;28;19948;-74
2022/01/08 04:01:35;;;;;;;;;;;;;;;20.06;45.44;100917.25;2075365;28;19926;-74
2022/01/08 04:02:37;;;;;;;;;;;;;;;20.05;45.69;100913.69;2075266;28;20844;-74
2022/01/08 04:03:37;;;;;;;;;;;;;;;20.05;45.60;100912.84;2074039;28;19925;-74
2022/01/08 04:04:39;;;;;;;;;;;;;;;20.05;45.58;100910.97;2073179;28;20027;-74
2022/01/08 04:05:39;;;;;;;;;;;;;;;20.05;45.62;100913.69;2074516;28;19929;-74
2022/01/08 04:06:41;;;;;;;;;;;;;;;20.05;45.58;100916.41;2073689;28;19926;-74
2022/01/08 04:07:41;;;;;;;;;;;;;;;20.05;45.57;100910.97;2074535;28;19932;-74
2022/01/08 04:08:44;;;;;;;;;;;;;;;20.05;45.57;100921.00;2075401;28;19972;-73
2022/01/08 04:09:45;;;;;;;;;;;;;;;20.03;45.50;100916.56;2074252;28;20304;-73
2022/01/08 04:10:46;;;;;;;;;;;;;;;20.04;45.70;100925.53;2075335;28;19925;-73
2022/01/08 04:11:47;;;;;;;;;;;;;;;20.05;45.57;100921.00;2074568;28;19928;-74
2022/01/08 04:12:52;;;;;;;;;;;;;;;20.03;45.40;100923.88;2072085;28;19925;-74
2022/01/08 04:13:54;;;;;;;;;;;;;;;20.03;45.63;100923.88;2074728;28;19952;-73
2022/01/08 04:15:05;;;;;;;;;;;;;;;20.03;45.53;100926.56;2074008;28;19929;-73
2022/01/08 04:16:11;;;;;;;;;;;;;;;20.03;45.57;100927.41;2075663;28;19925;-74
2022/01/08 04:17:14;;;;;;;;;;;;;;;20.05;45.81;100926.41;2075459;28;20015;-74
2022/01/08 04:18:15;;;;;;;;;;;;;;;20.05;45.65;100927.25;2075021;28;19925;-74
2022/01/08 04:19:16;;;;;;;;;;;;;;;20.05;45.57;100937.25;2073408;28;19928;-74
2022/01/08 04:20:18;;;;;;;;;;;;;;;20.06;45.41;100933.50;2073163;28;19928;-74
2022/01/08 04:22:53;;;;;;;;;;;;;;;19.70;45.51;100875.00;2056463;28;19952;-74
2022/01/08 04:23:56;;;;;;;;;;;;;;;20.09;45.70;100941.31;2056385;28;19933;-74
2022/01/08 04:24:57;;;;;;;;;;;;;;;20.09;45.30;100942.16;2056404;28;19965;-74
2022/01/08 04:25:58;;;;;;;;;;;;;;;20.09;45.63;100942.16;2056101;28;19930;-74
2022/01/08 04:26:59;;;;;;;;;;;;;;;20.10;45.63;100945.72;2057726;28;19922;-74
2022/01/08 04:27:59;;;;;;;;;;;;;;;20.10;45.55;100943.00;2056060;28;20733;-74
2022/01/08 04:29:01;;;;;;;;;;;;;;;20.09;45.72;100947.59;2069021;28;20324;-74
2022/01/08 04:30:02;;;;;;;;;;;;;;;20.09;45.45;100944.88;2075595;28;19948;-74
2022/01/08 04:31:03;;;;;;;;;;;;;;;20.09;45.54;100941.31;2074408;28;19922;-74
2022/01/08 04:32:04;;;;;;;;;;;;;;;20.09;45.42;100946.75;2075468;28;20435;-74
2022/01/08 04:33:05;;;;;;;;;;;;;;;20.08;45.34;100954.03;2075398;28;20614;-74
2022/01/08 04:34:06;;;;;;;;;;;;;;;20.08;45.52;100951.34;2074862;28;19951;-74
2022/01/08 04:35:07;;;;;;;;;;;;;;;20.08;45.44;100956.75;2074847;28;19921;-74
2022/01/08 04:36:08;;;;;;;;;;;;;;;20.08;45.66;100953.16;2072536;28;20528;-74
2022/01/08 04:37:09;;;;;;;;;;;;;;;20.08;45.48;100954.03;2074605;28;19940;-74
2022/01/08 04:38:11;;;;;;;;;;;;;;;20.08;45.69;100956.75;2074239;28;19925;-74
2022/01/08 04:39:13;;;;;;;;;;;;;;;20.09;45.49;100952.16;2075607;28;20166;-74
2022/01/08 04:40:15;;;;;;;;;;;;;;;20.09;45.33;100955.72;2074380;28;19925;-74
2022/01/08 04:41:15;;;;;;;;;;;;;;;20.09;45.45;100960.31;2074067;28;19929;-74
2022/01/08 04:42:16;;;;;;;;;;;;;;;20.09;45.35;100957.59;2075400;28;20403;-74
2022/01/08 04:43:17;;;;;;;;;;;;;;;20.08;45.50;100959.47;2073011;28;20296;-74
2022/01/08 04:44:18;;;;;;;;;;;;;;;20.08;45.40;100954.03;2073817;28;20047;-74
2022/01/08 04:45:21;;;;;;;;;;;;;;;20.09;45.72;100961.16;2075143;28;20345;-73
2022/01/08 04:46:22;;;;;;;;;;;;;;;20.09;45.75;100961.16;2075105;28;19929;-73
2022/01/08 04:47:22;;;;;;;;;;;;;;;20.09;45.63;100963.03;2074557;28;19925;-73
2022/01/08 04:48:24;;;;;;;;;;;;;;;20.09;45.50;100968.44;2075342;28;19964;-73
2022/01/08 04:49:24;;;;;;;;;;;;;;;20.09;45.38;100965.72;2074495;28;20039;-73
2022/01/08 04:50:26;;;;;;;;;;;;;;;20.08;45.46;100964.91;2073207;28;19933;-73
2022/01/08 04:51:26;;;;;;;;;;;;;;;20.08;45.41;100961.31;2073020;28;19920;-74
2022/01/08 04:52:28;;;;;;;;;;;;;;;20.08;45.42;100964.03;2074503;28;19931;-73
2022/01/08 04:53:29;;;;;;;;;;;;;;;20.07;45.40;100963.19;2074060;28;20321;-73
2022/01/08 04:54:31;;;;;;;;;;;;;;;20.09;45.72;100965.72;2075926;28;19929;-74
2022/01/08 04:55:32;;;;;;;;;;;;;;;20.09;45.48;100960.31;2074757;28;19921;-74
2022/01/08 04:56:33;;;;;;;;;;;;;;;20.08;45.52;100964.03;2074186;28;20416;-74
2022/01/08 04:57:34;;;;;;;;;;;;;;;20.08;45.54;100959.47;2074985;28;20320;-74
2022/01/08 04:58:34;;;;;;;;;;;;;;;20.08;45.42;100959.47;2074381;28;19929;-74
2022/01/08 04:59:36;;;;;;;;;;;;;;;20.09;45.28;100961.16;2071371;28;19925;-74
2022/01/08 05:00:37;;;;;;;;;;;;;;;20.09;45.28;100958.44;2072769;28;19925;-74
2022/01/08 05:01:38;;;;;;;;;;;;;;;20.09;45.55;100952.16;2074210;28;20835;-74
2022/01/08 05:02:38;;;;;;;;;;;;;;;20.08;45.22;100945.91;2074790;28;19931;-73
2022/01/08 05:03:40;;;;;;;;;;;;;;;20.08;45.26;100954.03;2075027;28;20369;-73
2022/01/08 05:04:40;;;;;;;;;;;;;;;20.08;45.29;100950.47;2075337;28;19924;-73
2022/01/08 05:05:42;;;;;;;;;;;;;;;20.07;45.35;100951.50;2074962;28;20366;-73
2022/01/08 05:06:43;;;;;;;;;;;;;;;20.07;45.09;100957.75;2073356;28;19925;-74
2022/01/08 05:07:43;;;;;;;;;;;;;;;20.05;45.37;100948.94;2075203;28;19925;-74
2022/01/08 05:08:45;;;;;;;;;;;;;;;20.05;45.50;100953.53;2073951;28;19929;-74
2022/01/08 05:09:47;;;;;;;;;;;;;;;20.03;45.45;100948.28;2075059;28;20369;-74
2022/01/08 05:10:48;;;;;;;;;;;;;;;20.02;45.51;100955.56;2073591;28;19925;-74
2022/01/08 05:11:48;;;;;;;;;;;;;;;20.01;45.19;100951.16;2075348;28;20285;-74
2022/01/08 05:12:50;;;;;;;;;;;;;;;20.00;45.13;100949.47;2074439;28;19988;-74
2022/01/08 05:13:50;;;;;;;;;;;;;;;19.99;45.32;100950.47;2073860;28;19925;-74
2022/01/08 05:14:52;;;;;;;;;;;;;;;19.99;45.17;100950.47;2073617;28;20280;-74
2022/01/08 05:15:52;;;;;;;;;;;;;;;19.96;45.40;100948.09;2071682;28;20288;-74
2022/01/08 05:16:58;;;;;;;;;;;;;;;19.96;45.24;100948.09;2074298;28;20037;-74
2022/01/08 05:18:00;;;;;;;;;;;;;;;19.96;45.10;100947.25;2075167;28;19931;-74
2022/01/08 05:19:01;;;;;;;;;;;;;;;19.95;45.44;100948.28;2074444;28;19925;-74
2022/01/08 05:20:04;;;;;;;;;;;;;;;19.94;45.59;100946.56;2075425;28;19925;-74
2022/01/08 05:21:17;;;;;;;;;;;;;;;19.95;45.12;100953.69;2076437;28;19936;-74
2022/01/08 05:22:23;;;;;;;;;;;;;;;19.92;45.36;100944.03;2076348;28;19929;-74
2022/01/08 05:23:24;;;;;;;;;;;;;;;19.93;45.39;100951.16;2076332;28;20430;-74
2022/01/08 05:24:25;;;;;;;;;;;;;;;19.93;45.33;100958.41;2076358;28;20547;-73
2022/01/08 05:25:28;;;;;;;;;;;;;;;19.93;45.31;100956.56;2076492;28;19936;-73
2022/01/08 05:26:29;;;;;;;;;;;;;;;19.94;45.48;100970.97;2077370;28;20391;-74
2022/01/08 05:27:30;;;;;;;;;;;;;;;19.93;45.51;100963.84;2076531;28;19932;-74
2022/01/08 05:28:31;;;;;;;;;;;;;;;19.94;45.17;100965.56;2077168;28;19925;-74
2022/01/08 05:29:31;;;;;;;;;;;;;;;19.94;45.27;100965.56;2076223;28;20538;-74
2022/01/08 05:30:33;;;;;;;;;;;;;;;19.94;45.27;100962.84;2072046;28;20033;-74
2022/01/08 05:31:33;;;;;;;;;;;;;;;19.95;45.19;100967.25;2076306;28;19925;-74